LFSI 220830Z AUTO VRB03KT CAVOK 14/09 Q1021

ElémentsDécodage
LFSI Station météo située sur l'aérodrome de SAINT-DIZIER Robinson
220830Z émis le 22 du mois à 08h30 UTC
AUTO Bulletin édité par un automate
VRB03KT vent de direction variable, 03 noeuds
CAVOK Ceiling And Visibility OK
- Visibilité de 10 Km ou plus
- Pas de nuage au-dessous de 1500m ou au-dessous de l'altitude minimale du secteur la plus élevée (si>1500m) et absence de CB
- pas de temps présent significatif
14/09 température 14°C, point de rosée 09°C
 soit une humidité relative de 72%
Q1021 la pression au niveau de la mer (QNH) est de 1021 hPa